Time;durP1;ratioP1;P1;durP2;ratioP2;P2;SDS_P1;SDS_P2;PMS_P1;PMS_P2;Temp;Humidity;BMP_temperature;BMP_pressure;BME280_temperature;BME280_humidity;BME280_pressure;Samples;Min_cycle;Max_cycle;Signal;HPM_P1;HPM_P2
2021/08/13 00:00:23;;;;;;;8.65;3.80;;;;;;;;;;5118102;28;20043;-78
2021/08/13 00:02:48;;;;;;;7.50;4.00;;;;;;;;;;5119711;28;20107;-78
2021/08/13 00:05:14;;;;;;;6.70;4.22;;;;;;;;;;5102363;28;20038;-78
2021/08/13 00:07:39;;;;;;;5.85;3.55;;;;;;;;;;5102407;28;20118;-78
2021/08/13 00:10:08;;;;;;;5.10;3.15;;;;;;;;;;5119830;27;20078;-78
2021/08/13 00:12:34;;;;;;;5.55;3.42;;;;;;;;;;5101326;28;20050;-78
2021/08/13 00:15:00;;;;;;;7.68;3.65;;;;;;;;;;5101347;28;20031;-78
2021/08/13 00:17:26;;;;;;;6.25;4.35;;;;;;;;;;5101046;28;20127;-78
2021/08/13 00:19:53;;;;;;;5.00;3.70;;;;;;;;;;5101343;28;20396;-78
2021/08/13 00:22:19;;;;;;;9.70;4.88;;;;;;;;;;5101822;28;20036;-79
2021/08/13 00:24:44;;;;;;;8.40;4.30;;;;;;;;;;5101125;28;20043;-80
2021/08/13 00:27:10;;;;;;;6.25;3.90;;;;;;;;;;5081900;28;20032;-79
2021/08/13 00:29:36;;;;;;;5.18;3.38;;;;;;;;;;5077553;28;20036;-80
2021/08/13 00:32:02;;;;;;;5.57;3.90;;;;;;;;;;5077012;28;20093;-79
2021/08/13 00:34:28;;;;;;;8.50;4.15;;;;;;;;;;5077999;28;20040;-79
2021/08/13 00:36:53;;;;;;;8.30;4.10;;;;;;;;;;5065009;28;20036;-79
2021/08/13 00:39:19;;;;;;;6.53;3.70;;;;;;;;;;5090741;28;20056;-79
2021/08/13 00:41:44;;;;;;;6.10;4.15;;;;;;;;;;5092119;28;20032;-79
2021/08/13 00:44:10;;;;;;;6.70;4.28;;;;;;;;;;5074517;28;20193;-79
2021/08/13 00:46:36;;;;;;;10.20;4.72;;;;;;;;;;5090944;28;20041;-79
2021/08/13 00:49:16;;;;;;;6.85;4.38;;;;;;;;;;5077073;28;20028;-79
2021/08/13 00:51:48;;;;;;;4.30;3.15;;;;;;;;;;5090462;28;20036;-79
2021/08/13 00:54:14;;;;;;;10.60;3.50;;;;;;;;;;5088982;28;20037;-79
2021/08/13 00:56:52;;;;;;;9.27;3.92;;;;;;;;;;5089592;28;20032;-78
2021/08/13 00:59:33;;;;;;;9.68;4.45;;;;;;;;;;5081701;28;20045;-78
2021/08/13 01:02:31;;;;;;;9.23;4.53;;;;;;;;;;5076304;28;20036;-78
2021/08/13 01:05:07;;;;;;;6.20;4.35;;;;;;;;;;5060949;28;20038;-78
2021/08/13 01:07:34;;;;;;;6.32;4.00;;;;;;;;;;5059970;28;20036;-78
2021/08/13 01:10:00;;;;;;;6.55;4.07;;;;;;;;;;5074998;28;20029;-78
2021/08/13 01:12:55;;;;;;;8.25;4.40;;;;;;;;;;5060637;28;20033;-78
2021/08/13 01:15:23;;;;;;;11.40;4.45;;;;;;;;;;5059797;28;20040;-78
2021/08/13 01:18:05;;;;;;;5.30;3.30;;;;;;;;;;5059675;28;20053;-78
2021/08/13 01:21:08;;;;;;;6.97;3.63;;;;;;;;;;5075599;28;20033;-78
2021/08/13 01:23:40;;;;;;;6.50;4.07;;;;;;;;;;5059775;28;20038;-78
2021/08/13 01:26:09;;;;;;;5.85;3.67;;;;;;;;;;5078829;28;20032;-79
2021/08/13 01:29:06;;;;;;;9.88;3.90;;;;;;;;;;5099037;28;20032;-79
2021/08/13 01:32:11;;;;;;;5.03;3.30;;;;;;;;;;5081722;28;20036;-79
2021/08/13 01:34:43;;;;;;;12.02;4.07;;;;;;;;;;5049454;28;20043;-79
2021/08/13 01:37:08;;;;;;;6.13;4.47;;;;;;;;;;5098379;28;20032;-79
2021/08/13 01:39:37;;;;;;;7.68;4.10;;;;;;;;;;5098891;28;20032;-79
2021/08/13 01:42:06;;;;;;;5.55;3.35;;;;;;;;;;5082430;28;20039;-79
2021/08/13 01:44:33;;;;;;;5.50;3.60;;;;;;;;;;5099355;28;20103;-79
2021/08/13 01:47:00;;;;;;;7.28;3.22;;;;;;;;;;5099014;28;20032;-79
2021/08/13 01:49:30;;;;;;;12.20;3.88;;;;;;;;;;5082749;28;20028;-79
2021/08/13 01:52:01;;;;;;;9.30;4.28;;;;;;;;;;5082390;28;20024;-79
2021/08/13 01:54:30;;;;;;;8.95;4.85;;;;;;;;;;5098377;28;20501;-79
2021/08/13 01:56:56;;;;;;;6.72;3.97;;;;;;;;;;5082175;28;20074;-79
2021/08/13 01:59:22;;;;;;;7.00;4.35;;;;;;;;;;5098352;28;20028;-79
2021/08/13 02:01:49;;;;;;;8.80;5.45;;;;;;;;;;5098683;28;20032;-79
2021/08/13 02:04:19;;;;;;;9.40;4.55;;;;;;;;;;5098426;28;20024;-79
2021/08/13 02:06:50;;;;;;;7.47;4.57;;;;;;;;;;5082215;28;20043;-79
2021/08/13 02:09:18;;;;;;;8.93;4.45;;;;;;;;;;5081371;28;20036;-79
2021/08/13 02:11:45;;;;;;;11.63;5.50;;;;;;;;;;5081497;28;20132;-80
2021/08/13 02:14:15;;;;;;;9.15;4.70;;;;;;;;;;5081669;28;20035;-79
2021/08/13 02:16:46;;;;;;;7.05;4.50;;;;;;;;;;5081130;28;20075;-79
2021/08/13 02:19:22;;;;;;;9.77;5.25;;;;;;;;;;5078622;28;20170;-79
2021/08/13 02:21:49;;;;;;;7.85;5.43;;;;;;;;;;5060882;28;20034;-79
2021/08/13 02:24:17;;;;;;;13.05;5.80;;;;;;;;;;5090583;28;20485;-79
2021/08/13 02:26:46;;;;;;;8.88;7.03;;;;;;;;;;5081584;28;20058;-79
2021/08/13 02:29:12;;;;;;;9.25;6.70;;;;;;;;;;5082054;28;20481;-79
2021/08/13 02:31:37;;;;;;;8.80;6.28;;;;;;;;;;5089316;28;20047;-79
2021/08/13 02:34:06;;;;;;;14.85;5.85;;;;;;;;;;5097442;28;20036;-79
2021/08/13 02:36:44;;;;;;;11.88;5.57;;;;;;;;;;5096625;28;20042;-79
2021/08/13 02:39:21;;;;;;;8.75;5.00;;;;;;;;;;5096393;28;20378;-79
2021/08/13 02:41:48;;;;;;;11.27;5.53;;;;;;;;;;5095986;28;20032;-79
2021/08/13 02:44:14;;;;;;;12.68;6.32;;;;;;;;;;5096251;28;20061;-79
2021/08/13 02:46:57;;;;;;;13.40;5.53;;;;;;;;;;5096003;28;20039;-79
2021/08/13 02:49:26;;;;;;;14.07;5.55;;;;;;;;;;5096246;28;20039;-79
2021/08/13 02:51:57;;;;;;;15.82;6.93;;;;;;;;;;5096624;28;20011;-79
2021/08/13 02:54:28;;;;;;;11.02;5.97;;;;;;;;;;5094098;28;20035;-79
2021/08/13 02:56:57;;;;;;;12.70;5.82;;;;;;;;;;5112905;28;20012;-79
2021/08/13 02:59:30;;;;;;;7.07;4.55;;;;;;;;;;5095266;28;20028;-79
2021/08/13 03:01:58;;;;;;;13.55;5.38;;;;;;;;;;5095762;28;20024;-79
2021/08/13 03:04:28;;;;;;;8.73;5.18;;;;;;;;;;5111071;28;20036;-79
2021/08/13 03:06:55;;;;;;;8.60;5.38;;;;;;;;;;5095536;28;20027;-79
2021/08/13 03:09:23;;;;;;;13.57;6.60;;;;;;;;;;5095767;28;20032;-79
2021/08/13 03:11:50;;;;;;;11.20;5.88;;;;;;;;;;5095040;28;20039;-79
2021/08/13 03:14:18;;;;;;;14.90;6.50;;;;;;;;;;5110789;28;20028;-79
2021/08/13 03:16:46;;;;;;;11.52;5.95;;;;;;;;;;5095728;28;20470;-79
2021/08/13 03:19:11;;;;;;;12.85;6.53;;;;;;;;;;5095151;28;20051;-79
2021/08/13 03:21:40;;;;;;;11.02;5.68;;;;;;;;;;5095537;28;20032;-79
2021/08/13 03:24:07;;;;;;;12.50;6.43;;;;;;;;;;5097744;28;20034;-79
2021/08/13 03:26:33;;;;;;;13.27;7.38;;;;;;;;;;5094525;28;20090;-79
2021/08/13 03:29:02;;;;;;;12.48;6.28;;;;;;;;;;5095232;28;20099;-79
2021/08/13 03:31:43;;;;;;;17.38;6.40;;;;;;;;;;5095669;28;20035;-79
2021/08/13 03:34:12;;;;;;;13.20;6.43;;;;;;;;;;5097374;28;20108;-79
2021/08/13 03:36:38;;;;;;;11.27;6.80;;;;;;;;;;5099185;28;20046;-79
2021/08/13 03:39:06;;;;;;;16.10;6.32;;;;;;;;;;5093842;28;20051;-79
2021/08/13 03:41:32;;;;;;;12.10;6.55;;;;;;;;;;5077541;28;20050;-79
2021/08/13 03:43:58;;;;;;;26.15;7.38;;;;;;;;;;5077072;28;20108;-80
2021/08/13 03:46:24;;;;;;;10.20;6.00;;;;;;;;;;5078577;28;20012;-79
2021/08/13 03:48:51;;;;;;;11.07;6.38;;;;;;;;;;5077093;28;20043;-79
2021/08/13 03:51:16;;;;;;;9.25;5.93;;;;;;;;;;5078746;28;20020;-79
2021/08/13 03:53:43;;;;;;;10.07;6.10;;;;;;;;;;5077525;28;20501;-79
2021/08/13 03:56:10;;;;;;;14.70;6.55;;;;;;;;;;5087743;28;20025;-79
2021/08/13 03:58:36;;;;;;;15.18;6.18;;;;;;;;;;5096908;28;20066;-79
2021/08/13 04:01:08;;;;;;;12.80;6.63;;;;;;;;;;5099297;28;20036;-80
2021/08/13 04:03:35;;;;;;;15.30;6.55;;;;;;;;;;5096461;28;20027;-79
2021/08/13 04:06:01;;;;;;;9.35;6.43;;;;;;;;;;5096376;28;20055;-79
2021/08/13 04:08:26;;;;;;;13.02;6.85;;;;;;;;;;5114921;28;20054;-79
2021/08/13 04:10:52;;;;;;;14.60;6.97;;;;;;;;;;5112193;28;20036;-79
2021/08/13 04:13:18;;;;;;;9.35;6.57;;;;;;;;;;5113278;28;20042;-80
2021/08/13 04:15:53;;;;;;;10.82;6.95;;;;;;;;;;5095178;28;20035;-80
2021/08/13 04:18:19;;;;;;;10.57;6.43;;;;;;;;;;5095250;28;20414;-79
2021/08/13 04:20:45;;;;;;;12.82;7.75;;;;;;;;;;5093283;28;20051;-80
2021/08/13 04:23:12;;;;;;;10.40;6.25;;;;;;;;;;5095297;28;20040;-80
2021/08/13 04:25:38;;;;;;;15.25;7.00;;;;;;;;;;5097903;28;20051;-80
2021/08/13 04:28:03;;;;;;;22.75;7.72;;;;;;;;;;5099923;28;20096;-80
2021/08/13 04:30:30;;;;;;;10.32;7.63;;;;;;;;;;5100572;28;20032;-80
2021/08/13 04:32:55;;;;;;;11.98;7.03;;;;;;;;;;5100264;28;20094;-80
2021/08/13 04:35:22;;;;;;;12.43;7.20;;;;;;;;;;5118715;28;20024;-80
2021/08/13 04:37:49;;;;;;;8.88;6.63;;;;;;;;;;5117328;28;20122;-80
2021/08/13 04:40:14;;;;;;;16.38;8.25;;;;;;;;;;5116491;28;20024;-80
2021/08/13 04:42:46;;;;;;;30.55;7.70;;;;;;;;;;5080315;28;20032;-80
2021/08/13 04:45:12;;;;;;;17.88;7.43;;;;;;;;;;5078799;28;20039;-80
2021/08/13 04:47:40;;;;;;;12.27;6.88;;;;;;;;;;5080404;28;20043;-80
2021/08/13 04:50:07;;;;;;;9.27;6.93;;;;;;;;;;5095136;28;20056;-80
2021/08/13 04:52:41;;;;;;;10.38;7.63;;;;;;;;;;5079947;28;20048;-80
2021/08/13 04:55:06;;;;;;;10.13;7.22;;;;;;;;;;5079400;28;20024;-80
2021/08/13 04:57:32;;;;;;;9.70;6.63;;;;;;;;;;5095492;28;20028;-80
2021/08/13 04:59:57;;;;;;;7.57;6.28;;;;;;;;;;5118050;28;20038;-80
2021/08/13 05:02:24;;;;;;;8.77;6.07;;;;;;;;;;5136640;28;20018;-80
2021/08/13 05:05:00;;;;;;;9.88;6.80;;;;;;;;;;5136257;28;20024;-80
2021/08/13 05:07:28;;;;;;;7.55;6.32;;;;;;;;;;5119240;28;20042;-80
2021/08/13 05:09:53;;;;;;;11.18;5.75;;;;;;;;;;5119815;28;20022;-79
2021/08/13 05:12:19;;;;;;;8.43;6.03;;;;;;;;;;5121150;28;20035;-80
2021/08/13 05:14:44;;;;;;;66.22;7.57;;;;;;;;;;5136484;28;20035;-80
2021/08/13 05:17:10;;;;;;;10.98;6.63;;;;;;;;;;5118619;28;20482;-80
2021/08/13 05:19:36;;;;;;;9.13;6.63;;;;;;;;;;5117558;28;20033;-80
2021/08/13 05:22:02;;;;;;;15.15;7.45;;;;;;;;;;5117326;28;20036;-80
2021/08/13 05:24:29;;;;;;;16.88;5.50;;;;;;;;;;5107377;28;20039;-80
2021/08/13 05:26:55;;;;;;;27.23;7.63;;;;;;;;;;5098451;28;20032;-79
2021/08/13 05:29:21;;;;;;;14.80;7.85;;;;;;;;;;5096620;28;20028;-80
2021/08/13 05:31:47;;;;;;;67.28;8.23;;;;;;;;;;5094712;28;20097;-80
2021/08/13 05:34:14;;;;;;;11.75;6.57;;;;;;;;;;5096342;28;20047;-80
2021/08/13 05:36:39;;;;;;;13.38;7.60;;;;;;;;;;5095834;28;20435;-80
2021/08/13 05:39:07;;;;;;;9.60;7.32;;;;;;;;;;5112649;28;20050;-80
2021/08/13 05:41:33;;;;;;;10.68;8.23;;;;;;;;;;5095145;28;20032;-80
2021/08/13 05:43:59;;;;;;;9.38;7.13;;;;;;;;;;5112495;28;20042;-80
2021/08/13 05:46:25;;;;;;;10.15;7.75;;;;;;;;;;5111484;28;20024;-80
2021/08/13 05:48:50;;;;;;;33.00;7.13;;;;;;;;;;5094428;28;20051;-80
2021/08/13 05:51:17;;;;;;;17.98;6.93;;;;;;;;;;5109897;28;20084;-80
2021/08/13 05:53:44;;;;;;;10.93;6.22;;;;;;;;;;5111692;28;20034;-80
2021/08/13 05:56:09;;;;;;;7.60;6.05;;;;;;;;;;5097265;28;20024;-80
2021/08/13 05:58:35;;;;;;;11.32;6.93;;;;;;;;;;5094555;28;20105;-80
2021/08/13 06:01:02;;;;;;;9.35;7.10;;;;;;;;;;5095050;28;20035;-80
2021/08/13 06:03:28;;;;;;;7.93;6.68;;;;;;;;;;5095693;28;20089;-80
2021/08/13 06:05:56;;;;;;;13.32;7.82;;;;;;;;;;5110517;28;20095;-80
2021/08/13 06:08:22;;;;;;;31.33;8.32;;;;;;;;;;5095009;28;20032;-80
2021/08/13 06:10:48;;;;;;;9.48;7.05;;;;;;;;;;5093584;28;20056;-80
2021/08/13 06:13:16;;;;;;;8.93;6.85;;;;;;;;;;5093914;28;20039;-80
2021/08/13 06:15:42;;;;;;;8.07;6.47;;;;;;;;;;5111149;28;20094;-80
2021/08/13 06:18:08;;;;;;;8.88;6.32;;;;;;;;;;5094804;28;20036;-80
2021/08/13 06:20:34;;;;;;;10.18;5.78;;;;;;;;;;5111134;28;20035;-80
2021/08/13 06:23:09;;;;;;;41.15;6.55;;;;;;;;;;5095701;28;20032;-80
2021/08/13 06:25:36;;;;;;;8.30;6.63;;;;;;;;;;5094837;28;20032;-81
2021/08/13 06:28:02;;;;;;;8.90;7.00;;;;;;;;;;5114691;28;20045;-80
2021/08/13 06:30:28;;;;;;;18.35;7.90;;;;;;;;;;5097684;28;20024;-80
2021/08/13 06:32:55;;;;;;;10.48;7.88;;;;;;;;;;5097518;28;20053;-80
2021/08/13 06:35:23;;;;;;;13.63;7.57;;;;;;;;;;5113227;28;20032;-80
2021/08/13 06:37:54;;;;;;;13.68;7.03;;;;;;;;;;5095230;28;20028;-80
2021/08/13 06:40:22;;;;;;;14.75;7.90;;;;;;;;;;5096316;28;20028;-80
2021/08/13 06:42:49;;;;;;;21.67;8.00;;;;;;;;;;5096625;28;20028;-80
2021/08/13 06:45:19;;;;;;;13.60;8.35;;;;;;;;;;5095435;28;20012;-80
2021/08/13 06:47:45;;;;;;;11.57;6.82;;;;;;;;;;5112643;28;20062;-80
2021/08/13 06:50:12;;;;;;;21.77;7.70;;;;;;;;;;5113116;28;20032;-80
2021/08/13 06:52:43;;;;;;;9.23;7.68;;;;;;;;;;5097184;28;20031;-80
2021/08/13 06:55:10;;;;;;;12.07;7.57;;;;;;;;;;5112564;28;20028;-80
2021/08/13 06:57:36;;;;;;;11.85;7.63;;;;;;;;;;5096351;28;20035;-79
2021/08/13 07:00:03;;;;;;;13.48;7.70;;;;;;;;;;5096582;28;20027;-80
2021/08/13 07:02:30;;;;;;;11.70;7.47;;;;;;;;;;5123196;28;20083;-80
2021/08/13 07:04:56;;;;;;;9.60;6.43;;;;;;;;;;5118159;28;20042;-80
2021/08/13 07:07:22;;;;;;;8.80;6.22;;;;;;;;;;5117285;28;20035;-80
2021/08/13 07:09:48;;;;;;;8.18;6.32;;;;;;;;;;5117324;28;20039;-80
2021/08/13 07:12:18;;;;;;;6.80;5.75;;;;;;;;;;5099482;28;20038;-81
2021/08/13 07:14:46;;;;;;;7.53;5.45;;;;;;;;;;5116213;28;20019;-82
2021/08/13 07:17:11;;;;;;;6.63;5.30;;;;;;;;;;5111181;28;20028;-84
2021/08/13 07:19:37;;;;;;;6.47;4.90;;;;;;;;;;5113886;28;20051;-85
2021/08/13 07:22:03;;;;;;;7.80;5.60;;;;;;;;;;5106308;28;20035;-84
2021/08/13 07:24:30;;;;;;;7.72;4.68;;;;;;;;;;5083259;28;20032;-84
2021/08/13 07:26:56;;;;;;;6.43;4.60;;;;;;;;;;5078711;28;20033;-84
2021/08/13 07:29:23;;;;;;;11.50;5.20;;;;;;;;;;5082402;28;20056;-84
2021/08/13 07:31:49;;;;;;;8.20;4.53;;;;;;;;;;5064880;28;20076;-84
2021/08/13 07:34:15;;;;;;;10.50;5.45;;;;;;;;;;5063269;28;20044;-80
2021/08/13 07:36:41;;;;;;;10.88;4.72;;;;;;;;;;5095304;28;20431;-81
2021/08/13 07:39:07;;;;;;;7.88;5.13;;;;;;;;;;5078329;28;20033;-82
2021/08/13 07:41:32;;;;;;;9.75;5.45;;;;;;;;;;5078865;28;20029;-81
2021/08/13 07:43:58;;;;;;;8.60;4.47;;;;;;;;;;5062322;28;20033;-80
2021/08/13 07:46:24;;;;;;;5.35;4.28;;;;;;;;;;5080086;28;20074;-82
2021/08/13 07:48:49;;;;;;;5.55;4.25;;;;;;;;;;5062391;28;20032;-81
2021/08/13 07:51:15;;;;;;;7.57;4.60;;;;;;;;;;5065085;28;20555;-81
2021/08/13 07:53:42;;;;;;;8.23;4.82;;;;;;;;;;5082794;28;20052;-83
2021/08/13 07:56:09;;;;;;;5.45;4.38;;;;;;;;;;5083550;28;20024;-83
2021/08/13 07:58:36;;;;;;;7.22;4.38;;;;;;;;;;5068290;28;20040;-83
2021/08/13 08:01:01;;;;;;;11.75;5.43;;;;;;;;;;5087861;28;20056;-84
2021/08/13 08:03:27;;;;;;;7.05;4.07;;;;;;;;;;5100681;28;20051;-84
2021/08/13 08:05:52;;;;;;;5.60;4.00;;;;;;;;;;5108774;28;20012;-83
2021/08/13 08:08:18;;;;;;;8.85;5.10;;;;;;;;;;5109542;28;20020;-83
2021/08/13 08:10:46;;;;;;;7.88;3.83;;;;;;;;;;5108416;28;20486;-82
2021/08/13 08:13:18;;;;;;;7.70;4.47;;;;;;;;;;5109953;28;20040;-82
2021/08/13 08:15:45;;;;;;;7.07;4.20;;;;;;;;;;5108936;28;20040;-83
2021/08/13 08:18:11;;;;;;;7.43;4.00;;;;;;;;;;5108838;28;20028;-83
2021/08/13 08:20:37;;;;;;;8.23;4.07;;;;;;;;;;5110621;28;20104;-83
2021/08/13 08:23:04;;;;;;;6.22;4.22;;;;;;;;;;5112621;28;20032;-83
2021/08/13 08:25:29;;;;;;;4.90;4.00;;;;;;;;;;5122148;28;20023;-83
2021/08/13 08:27:55;;;;;;;10.82;4.25;;;;;;;;;;5134341;28;20046;-83
2021/08/13 08:30:21;;;;;;;12.90;3.97;;;;;;;;;;5133581;28;20538;-82
2021/08/13 08:32:46;;;;;;;7.75;3.55;;;;;;;;;;5134493;28;20044;-83
2021/08/13 08:35:12;;;;;;;9.75;3.92;;;;;;;;;;5133195;28;20059;-83
2021/08/13 08:37:58;;;;;;;7.40;4.00;;;;;;;;;;5132546;28;20036;-83
2021/08/13 08:40:30;;;;;;;8.88;4.13;;;;;;;;;;5115932;28;20048;-83
2021/08/13 08:42:58;;;;;;;8.20;4.22;;;;;;;;;;5082615;28;20036;-83
2021/08/13 08:45:29;;;;;;;7.03;4.50;;;;;;;;;;5086955;28;20047;-81
2021/08/13 08:47:58;;;;;;;6.78;4.63;;;;;;;;;;5095889;28;20036;-80
2021/08/13 08:50:25;;;;;;;4.93;3.92;;;;;;;;;;5105251;28;20036;-79
2021/08/13 08:52:51;;;;;;;5.53;3.70;;;;;;;;;;5101709;28;20044;-80
2021/08/13 08:55:17;;;;;;;7.55;4.10;;;;;;;;;;5101024;28;20118;-81
2021/08/13 08:57:44;;;;;;;5.90;4.10;;;;;;;;;;5102664;28;20082;-80
2021/08/13 09:00:10;;;;;;;12.95;3.78;;;;;;;;;;5104142;28;20105;-80
2021/08/13 09:02:36;;;;;;;5.78;3.90;;;;;;;;;;5105330;28;20043;-81
2021/08/13 09:05:02;;;;;;;9.25;4.03;;;;;;;;;;5104196;28;20123;-80
2021/08/13 09:07:28;;;;;;;5.53;3.90;;;;;;;;;;5103528;28;20074;-80
2021/08/13 09:09:53;;;;;;;5.75;4.32;;;;;;;;;;5105941;28;20113;-82
2021/08/13 09:12:20;;;;;;;6.25;4.50;;;;;;;;;;5099662;28;20048;-85
2021/08/13 09:14:45;;;;;;;7.43;4.38;;;;;;;;;;5096253;28;20044;-80
2021/08/13 09:17:11;;;;;;;5.63;4.30;;;;;;;;;;5100006;28;20071;-81
2021/08/13 09:19:41;;;;;;;7.13;4.32;;;;;;;;;;5101617;28;20103;-82
2021/08/13 09:22:10;;;;;;;8.18;4.10;;;;;;;;;;5099651;28;20486;-80
2021/08/13 09:24:37;;;;;;;13.13;5.25;;;;;;;;;;5098564;28;20036;-79
2021/08/13 09:27:23;;;;;;;7.47;3.90;;;;;;;;;;5100769;28;20127;-81
2021/08/13 09:30:17;;;;;;;6.40;4.22;;;;;;;;;;5089597;28;20493;-79
2021/08/13 09:33:03;;;;;;;5.03;3.80;;;;;;;;;;5079500;28;20032;-76
2021/08/13 09:35:35;;;;;;;6.07;3.90;;;;;;;;;;5059942;28;20478;-78
2021/08/13 09:38:12;;;;;;;7.32;4.72;;;;;;;;;;5058742;28;20032;-78
2021/08/13 09:40:39;;;;;;;6.43;4.00;;;;;;;;;;5061788;28;20093;-79
2021/08/13 09:43:05;;;;;;;7.25;4.10;;;;;;;;;;5118499;28;20485;-81
2021/08/13 09:45:33;;;;;;;5.68;3.83;;;;;;;;;;5117795;28;20035;-79
2021/08/13 09:47:59;;;;;;;4.68;3.45;;;;;;;;;;5081237;28;20064;-80
2021/08/13 09:50:41;;;;;;;7.85;4.60;;;;;;;;;;5080863;28;20504;-80
2021/08/13 09:53:12;;;;;;;7.20;4.15;;;;;;;;;;5083578;28;20035;-83
2021/08/13 09:55:41;;;;;;;10.20;4.40;;;;;;;;;;5099992;28;20035;-84
2021/08/13 09:58:11;;;;;;;11.20;4.18;;;;;;;;;;5082696;28;20032;-82
2021/08/13 10:00:48;;;;;;;9.15;4.85;;;;;;;;;;5099849;28;20040;-82
2021/08/13 10:03:14;;;;;;;10.02;4.35;;;;;;;;;;5082175;28;20067;-83
2021/08/13 10:05:40;;;;;;;18.08;4.97;;;;;;;;;;5081525;28;20111;-82
2021/08/13 10:08:08;;;;;;;8.20;4.40;;;;;;;;;;5081146;28;20074;-81
2021/08/13 10:10:34;;;;;;;7.13;4.32;;;;;;;;;;5084315;28;20071;-80
2021/08/13 10:13:03;;;;;;;7.57;4.25;;;;;;;;;;5090721;28;20039;-80
2021/08/13 10:15:30;;;;;;;7.47;4.20;;;;;;;;;;5106953;28;20043;-80
2021/08/13 10:17:58;;;;;;;7.25;4.63;;;;;;;;;;5107738;28;20059;-80
2021/08/13 10:20:26;;;;;;;7.53;4.97;;;;;;;;;;5121579;28;20028;-80
2021/08/13 10:22:52;;;;;;;8.32;4.80;;;;;;;;;;5106702;28;20019;-81
2021/08/13 10:25:20;;;;;;;6.63;4.40;;;;;;;;;;5106669;28;20028;-82
2021/08/13 10:27:47;;;;;;;6.95;4.47;;;;;;;;;;5081011;28;20097;-79
2021/08/13 10:30:18;;;;;;;8.95;4.32;;;;;;;;;;5094749;28;20123;-79
2021/08/13 10:32:45;;;;;;;7.57;4.32;;;;;;;;;;5092649;28;20114;-78
2021/08/13 10:35:11;;;;;;;12.05;5.07;;;;;;;;;;5096738;28;20117;-78
2021/08/13 10:37:41;;;;;;;12.55;5.25;;;;;;;;;;5081354;28;20036;-82
2021/08/13 10:40:09;;;;;;;13.18;4.93;;;;;;;;;;5081202;28;20036;-80
2021/08/13 10:42:40;;;;;;;7.95;5.40;;;;;;;;;;5079441;28;20115;-81
2021/08/13 10:45:13;;;;;;;9.95;5.13;;;;;;;;;;5097890;28;20084;-81
2021/08/13 10:47:49;;;;;;;9.43;4.90;;;;;;;;;;5071727;28;20558;-82
2021/08/13 10:50:17;;;;;;;7.13;5.00;;;;;;;;;;5058733;28;20053;-80
2021/08/13 10:52:43;;;;;;;9.25;4.65;;;;;;;;;;5075852;28;20032;-79
2021/08/13 10:55:42;;;;;;;10.15;5.47;;;;;;;;;;5074082;28;20050;-79
2021/08/13 10:58:12;;;;;;;8.02;5.18;;;;;;;;;;5080298;28;20032;-81
2021/08/13 11:01:06;;;;;;;7.43;4.90;;;;;;;;;;5099760;28;20024;-79
2021/08/13 11:03:36;;;;;;;7.55;5.15;;;;;;;;;;5086938;28;20036;-79
2021/08/13 11:06:04;;;;;;;7.38;5.35;;;;;;;;;;5104710;28;20603;-80
2021/08/13 11:08:41;;;;;;;7.05;4.93;;;;;;;;;;5091163;28;20511;-79
2021/08/13 11:11:14;;;;;;;8.07;4.85;;;;;;;;;;5123242;28;20040;-79
2021/08/13 11:13:42;;;;;;;6.65;5.18;;;;;;;;;;5124964;28;20043;-79
2021/08/13 11:16:31;;;;;;;6.93;4.70;;;;;;;;;;5126302;28;20036;-79
2021/08/13 11:19:00;;;;;;;8.02;5.00;;;;;;;;;;5109964;28;20032;-79
2021/08/13 11:21:30;;;;;;;7.70;4.68;;;;;;;;;;5127477;28;20035;-79
2021/08/13 11:23:59;;;;;;;10.15;4.78;;;;;;;;;;5101275;28;20034;-79
2021/08/13 11:27:08;;;;;;;10.20;4.95;;;;;;;;;;5107755;28;20102;-79
2021/08/13 11:29:42;;;;;;;6.03;4.97;;;;;;;;;;5107996;28;20036;-79
2021/08/13 11:32:36;;;;;;;7.03;4.47;;;;;;;;;;5093997;28;20036;-84
2021/08/13 11:35:11;;;;;;;9.90;5.07;;;;;;;;;;5084953;28;20044;-81
2021/08/13 11:37:50;;;;;;;11.73;4.82;;;;;;;;;;5098545;28;20032;-79
2021/08/13 11:40:21;;;;;;;12.23;5.15;;;;;;;;;;5096289;28;20056;-80
2021/08/13 11:42:51;;;;;;;5.65;4.75;;;;;;;;;;5082223;28;20055;-81
2021/08/13 11:45:19;;;;;;;6.22;4.47;;;;;;;;;;5080217;28;20439;-81
2021/08/13 11:47:49;;;;;;;9.82;4.70;;;;;;;;;;5099534;28;20028;-81
2021/08/13 11:50:15;;;;;;;11.18;4.80;;;;;;;;;;5102520;28;20024;-81
2021/08/13 11:52:52;;;;;;;9.45;4.75;;;;;;;;;;5102212;28;20020;-82
2021/08/13 11:55:21;;;;;;;11.65;4.70;;;;;;;;;;5080329;28;20440;-79
2021/08/13 11:57:47;;;;;;;5.50;4.43;;;;;;;;;;5110435;28;20054;-81
2021/08/13 12:00:16;;;;;;;5.93;4.50;;;;;;;;;;5109288;28;20095;-80
2021/08/13 12:02:41;;;;;;;11.52;4.57;;;;;;;;;;5121821;28;20043;-80
2021/08/13 12:05:12;;;;;;;10.52;5.65;;;;;;;;;;5105023;28;20036;-80
2021/08/13 12:07:39;;;;;;;5.70;4.93;;;;;;;;;;5128662;28;20043;-79
2021/08/13 12:10:15;;;;;;;9.60;5.03;;;;;;;;;;5111727;28;20043;-79
2021/08/13 12:12:43;;;;;;;7.97;4.65;;;;;;;;;;5129477;28;20108;-79
2021/08/13 12:15:10;;;;;;;5.32;4.35;;;;;;;;;;5130569;28;20425;-79
2021/08/13 12:17:37;;;;;;;6.20;4.93;;;;;;;;;;5130670;28;20084;-79
2021/08/13 12:20:08;;;;;;;6.70;4.38;;;;;;;;;;5112772;28;20031;-79
2021/08/13 12:22:36;;;;;;;15.43;4.93;;;;;;;;;;5130765;28;20035;-79
2021/08/13 12:25:07;;;;;;;10.25;4.80;;;;;;;;;;5094626;28;20078;-79
2021/08/13 12:27:36;;;;;;;10.23;4.93;;;;;;;;;;5091335;28;20411;-81
2021/08/13 12:30:03;;;;;;;9.10;4.85;;;;;;;;;;5107762;28;20085;-79
2021/08/13 12:32:39;;;;;;;5.72;4.68;;;;;;;;;;5108492;28;20093;-79
2021/08/13 12:35:07;;;;;;;7.90;4.32;;;;;;;;;;5108099;28;20039;-79
2021/08/13 12:37:33;;;;;;;13.02;4.00;;;;;;;;;;5106050;28;20123;-79
2021/08/13 12:40:00;;;;;;;8.95;4.05;;;;;;;;;;5091000;28;20020;-79
2021/08/13 12:42:26;;;;;;;5.68;3.95;;;;;;;;;;5109907;28;20038;-79
2021/08/13 12:44:53;;;;;;;6.80;4.38;;;;;;;;;;5088759;28;20486;-78
2021/08/13 12:47:19;;;;;;;9.55;4.45;;;;;;;;;;5076709;28;20525;-77
2021/08/13 12:49:45;;;;;;;12.70;4.35;;;;;;;;;;5061104;28;20033;-79
2021/08/13 12:52:15;;;;;;;7.57;4.47;;;;;;;;;;5080160;28;20029;-79
2021/08/13 12:54:49;;;;;;;9.60;5.00;;;;;;;;;;5078465;28;20052;-79
2021/08/13 12:57:18;;;;;;;9.63;4.57;;;;;;;;;;5063161;28;20032;-80
2021/08/13 12:59:58;;;;;;;11.02;4.10;;;;;;;;;;5064868;28;20060;-79
2021/08/13 13:02:25;;;;;;;9.63;4.22;;;;;;;;;;5081616;28;20040;-80
2021/08/13 13:05:00;;;;;;;6.38;4.15;;;;;;;;;;5064663;28;20502;-79
2021/08/13 13:07:37;;;;;;;6.90;4.38;;;;;;;;;;5081723;28;20100;-80
2021/08/13 13:10:23;;;;;;;5.90;4.22;;;;;;;;;;5081794;28;20036;-80
2021/08/13 13:12:50;;;;;;;10.07;4.35;;;;;;;;;;5082342;28;20500;-79
2021/08/13 13:15:30;;;;;;;10.25;4.40;;;;;;;;;;5065912;28;20044;-80
2021/08/13 13:18:03;;;;;;;9.18;4.45;;;;;;;;;;5066394;28;20099;-80
2021/08/13 13:20:36;;;;;;;6.18;4.13;;;;;;;;;;5066252;28;20066;-80
2021/08/13 13:23:16;;;;;;;8.13;4.25;;;;;;;;;;5085503;28;20028;-80
2021/08/13 13:26:20;;;;;;;6.88;4.47;;;;;;;;;;5097615;28;20040;-80
2021/08/13 13:29:33;;;;;;;11.10;4.88;;;;;;;;;;5097357;28;20032;-80
2021/08/13 13:32:16;;;;;;;12.23;4.85;;;;;;;;;;5104543;28;20054;-79
2021/08/13 13:34:59;;;;;;;6.68;4.88;;;;;;;;;;5102673;28;20051;-80
2021/08/13 13:37:50;;;;;;;10.97;5.77;;;;;;;;;;5102986;28;20505;-79
2021/08/13 13:40:16;;;;;;;7.15;5.20;;;;;;;;;;5121862;28;20282;-79
2021/08/13 13:42:42;;;;;;;9.35;5.60;;;;;;;;;;5105667;28;20032;-80
2021/08/13 13:45:09;;;;;;;12.27;6.15;;;;;;;;;;5121787;28;20061;-79
2021/08/13 13:47:37;;;;;;;9.57;6.15;;;;;;;;;;5105537;28;20031;-79
2021/08/13 13:50:03;;;;;;;9.95;6.05;;;;;;;;;;5097385;28;20059;-80
2021/08/13 13:52:29;;;;;;;10.60;5.53;;;;;;;;;;5084243;28;20032;-80
2021/08/13 13:54:56;;;;;;;8.57;5.85;;;;;;;;;;5083939;28;20032;-79
2021/08/13 13:57:22;;;;;;;10.57;6.32;;;;;;;;;;5075546;28;20038;-79
2021/08/13 13:59:47;;;;;;;8.80;6.20;;;;;;;;;;5065617;28;20104;-80
2021/08/13 14:02:13;;;;;;;9.18;5.80;;;;;;;;;;5065626;28;20032;-79
2021/08/13 14:04:39;;;;;;;12.02;6.00;;;;;;;;;;5081572;28;20036;-80
2021/08/13 14:07:04;;;;;;;12.35;6.60;;;;;;;;;;5064098;28;20445;-79
2021/08/13 14:09:30;;;;;;;10.43;6.43;;;;;;;;;;5064135;28;20485;-80
2021/08/13 14:11:56;;;;;;;15.77;6.65;;;;;;;;;;5079729;28;20028;-79
2021/08/13 14:14:22;;;;;;;8.25;6.65;;;;;;;;;;5063835;28;20036;-79
2021/08/13 14:16:48;;;;;;;10.80;6.10;;;;;;;;;;5080218;28;20032;-79
2021/08/13 14:19:14;;;;;;;13.45;7.38;;;;;;;;;;5080327;28;20025;-80
2021/08/13 14:21:41;;;;;;;12.63;6.60;;;;;;;;;;5080118;28;20123;-80
2021/08/13 14:24:07;;;;;;;11.52;6.43;;;;;;;;;;5063447;28;20024;-79
2021/08/13 14:26:33;;;;;;;11.98;6.25;;;;;;;;;;5062647;28;20036;-79
2021/08/13 14:29:01;;;;;;;6.65;5.82;;;;;;;;;;5079763;28;20043;-79
2021/08/13 14:31:27;;;;;;;14.50;6.47;;;;;;;;;;5080688;28;20077;-81
2021/08/13 14:33:53;;;;;;;8.45;6.45;;;;;;;;;;5083805;28;20061;-80
2021/08/13 14:36:19;;;;;;;8.20;6.38;;;;;;;;;;5065422;28;20028;-79
2021/08/13 14:38:45;;;;;;;13.52;6.30;;;;;;;;;;5068939;28;20063;-80
2021/08/13 14:41:10;;;;;;;12.23;6.60;;;;;;;;;;5069067;28;20070;-80
2021/08/13 14:43:37;;;;;;;18.23;6.32;;;;;;;;;;5069513;28;20035;-79
2021/08/13 14:46:06;;;;;;;8.50;5.78;;;;;;;;;;5070363;28;20028;-80
2021/08/13 14:48:31;;;;;;;16.60;6.97;;;;;;;;;;5085209;28;20544;-80
2021/08/13 14:50:59;;;;;;;9.77;6.13;;;;;;;;;;5069173;28;20028;-80